Time;durP1;ratioP1;P1;durP2;ratioP2;P2;SDS_P1;SDS_P2;PMS_P1;PMS_P2;Temp;Humidity;BMP_temperature;BMP_pressure;BME280_temperature;BME280_humidity;BME280_pressure;Samples;Min_cycle;Max_cycle;Signal;HPM_P1;HPM_P2
2021/08/08 00:01:22;;;;;;;0.90;0.72;;;;;;;14.79;73.99;99472.10;1677301;82;21082;-57
2021/08/08 00:03:48;;;;;;;3.35;0.60;;;;;;;14.76;73.85;99479.46;1677015;82;22318;-59
2021/08/08 00:06:15;;;;;;;2.25;0.70;;;;;;;14.73;73.76;99484.22;1694038;82;21053;-59
2021/08/08 00:08:43;;;;;;;1.95;0.70;;;;;;;14.72;73.86;99479.77;1703437;82;21080;-59
2021/08/08 00:11:09;;;;;;;1.87;0.60;;;;;;;14.71;73.87;99484.83;1695215;82;21365;-58
2021/08/08 00:13:36;;;;;;;1.65;0.53;;;;;;;14.67;73.86;99478.74;1692962;82;21081;-57
2021/08/08 00:16:03;;;;;;;2.20;0.60;;;;;;;14.69;73.82;99486.77;1701082;82;22178;-56
2021/08/08 00:18:31;;;;;;;1.17;0.60;;;;;;;14.66;73.81;99486.48;1710351;81;21095;-56
2021/08/08 00:20:58;;;;;;;3.15;0.78;;;;;;;14.65;73.84;99489.30;1729710;81;21032;-57
2021/08/08 00:23:24;;;;;;;1.95;0.70;;;;;;;14.62;73.89;99485.47;1728356;80;21074;-59
2021/08/08 00:25:50;;;;;;;4.92;0.70;;;;;;;14.59;73.85;99485.66;1729760;81;21075;-57
2021/08/08 00:28:17;;;;;;;2.60;0.82;;;;;;;14.52;73.78;99482.52;1732872;81;21215;-59
2021/08/08 00:30:43;;;;;;;3.33;0.60;;;;;;;14.48;73.81;99481.46;1729713;81;21063;-57
2021/08/08 00:33:10;;;;;;;2.15;0.62;;;;;;;14.45;73.96;99487.98;1725816;80;21051;-56
2021/08/08 00:35:43;;;;;;;5.85;0.70;;;;;;;14.44;74.16;99487.59;1727171;81;21039;-57
2021/08/08 00:38:07;;;;;;;2.45;0.57;;;;;;;14.44;74.31;99486.23;1730084;80;21043;-56
2021/08/08 00:40:33;;;;;;;0.70;0.53;;;;;;;14.45;74.23;99486.62;1727063;80;21429;-57
2021/08/08 00:43:00;;;;;;;1.42;0.60;;;;;;;14.44;74.11;99488.94;1673554;84;21484;-55
2021/08/08 00:45:27;;;;;;;1.05;0.68;;;;;;;14.45;74.03;99492.52;1672761;84;21072;-57
2021/08/08 00:47:56;;;;;;;2.50;0.75;;;;;;;14.42;74.06;99487.30;1694585;83;21359;-57
2021/08/08 00:50:26;;;;;;;3.62;0.70;;;;;;;14.38;74.02;99486.59;1640792;83;21077;-58
2021/08/08 00:52:53;;;;;;;4.05;0.50;;;;;;;14.35;73.90;99486.34;1671048;83;21483;-55
2021/08/08 00:55:21;;;;;;;2.92;0.60;;;;;;;14.32;73.77;99491.95;1711529;82;21053;-57
2021/08/08 00:57:48;;;;;;;2.92;0.60;;;;;;;14.30;73.87;99494.38;1710254;82;21076;-59
2021/08/08 01:00:16;;;;;;;1.87;0.50;;;;;;;14.26;73.96;99488.31;1710403;82;21083;-58
2021/08/08 01:02:53;;;;;;;1.10;0.60;;;;;;;14.24;74.07;99493.44;1710206;82;21153;-58
2021/08/08 01:05:48;;;;;;;0.93;0.60;;;;;;;14.19;74.07;99492.89;1709944;82;22183;-57
2021/08/08 01:08:22;;;;;;;1.25;0.60;;;;;;;14.21;74.08;99508.04;1712333;82;21430;-59
2021/08/08 01:10:49;;;;;;;2.05;0.65;;;;;;;14.21;74.02;99509.88;1689997;81;21040;-57
2021/08/08 01:13:16;;;;;;;2.17;0.60;;;;;;;14.18;73.89;99500.14;1712083;82;21000;-56
2021/08/08 01:15:44;;;;;;;1.00;0.50;;;;;;;14.11;73.89;99504.72;1714761;81;20916;-58
2021/08/08 01:18:14;;;;;;;1.60;0.42;;;;;;;14.07;73.77;99502.69;1711465;82;22225;-58
2021/08/08 01:20:42;;;;;;;1.55;0.70;;;;;;;14.03;73.91;99505.72;1711198;82;21132;-59
2021/08/08 01:23:12;;;;;;;2.65;0.60;;;;;;;14.00;74.16;99508.13;1710507;82;21256;-57
2021/08/08 01:25:39;;;;;;;2.70;1.25;;;;;;;14.00;74.16;99508.13;1687894;82;21037;-59
2021/08/08 01:28:06;;;;;;;2.55;0.78;;;;;;;13.99;74.39;99510.45;1712937;82;21093;-58
2021/08/08 01:30:34;;;;;;;3.00;0.60;;;;;;;13.99;74.57;99515.38;1711231;82;21414;-56
2021/08/08 01:33:06;;;;;;;2.10;0.60;;;;;;;14.01;74.54;99510.74;1710195;82;21613;-56
2021/08/08 01:35:34;;;;;;;1.52;0.60;;;;;;;14.00;74.52;99508.13;1709086;82;21344;-58
2021/08/08 01:38:01;;;;;;;4.35;0.60;;;;;;;13.98;74.52;99512.28;1710473;82;21084;-54
2021/08/08 01:40:47;;;;;;;2.85;0.60;;;;;;;13.94;74.42;99517.53;1709837;82;21397;-57
2021/08/08 01:43:21;;;;;;;1.67;0.60;;;;;;;13.91;74.47;99519.55;1713337;82;21778;-56
2021/08/08 01:45:47;;;;;;;0.60;0.50;;;;;;;13.89;74.59;99514.72;1709807;82;21512;-58
2021/08/08 01:48:16;;;;;;;2.45;0.50;;;;;;;13.89;74.63;99512.89;1712665;82;21569;-57
2021/08/08 01:50:42;;;;;;;1.62;0.50;;;;;;;13.87;74.60;99505.83;1714138;81;21056;-59
2021/08/08 01:53:10;;;;;;;2.35;0.50;;;;;;;13.87;74.61;99509.89;1714371;82;21654;-56
2021/08/08 01:55:37;;;;;;;0.60;0.50;;;;;;;13.85;74.42;99507.31;1668555;82;22109;-56
2021/08/08 01:58:05;;;;;;;2.27;0.50;;;;;;;13.85;74.38;99513.20;1713159;82;20969;-58
2021/08/08 02:00:32;;;;;;;2.50;0.60;;;;;;;13.82;74.32;99510.20;1710655;82;21506;-58
2021/08/08 02:03:00;;;;;;;3.75;0.80;;;;;;;13.73;74.04;99501.81;1716534;82;21470;-57
2021/08/08 02:05:31;;;;;;;6.50;0.60;;;;;;;13.73;74.04;99501.81;1708118;82;20894;-58
2021/08/08 02:07:59;;;;;;;1.60;0.60;;;;;;;13.71;74.29;99505.09;1711910;82;21099;-57
2021/08/08 02:10:27;;;;;;;3.62;0.50;;;;;;;13.67;74.37;99508.98;1713268;82;20953;-58
2021/08/08 02:12:54;;;;;;;0.75;0.50;;;;;;;13.63;74.41;99514.58;1713586;82;20847;-58
2021/08/08 02:15:21;;;;;;;3.12;0.57;;;;;;;13.62;74.46;99521.44;1712529;82;20956;-55
2021/08/08 02:17:49;;;;;;;2.05;0.70;;;;;;;13.60;74.58;99522.91;1713107;82;21542;-59
2021/08/08 02:20:17;;;;;;;1.60;0.40;;;;;;;13.61;74.73;99523.75;1711932;82;21639;-58
2021/08/08 02:22:46;;;;;;;3.33;0.50;;;;;;;13.61;74.89;99525.10;1707967;82;21463;-59
2021/08/08 02:25:14;;;;;;;1.00;0.50;;;;;;;13.60;74.75;99526.97;1712366;82;20886;-57
2021/08/08 02:27:41;;;;;;;3.72;0.50;;;;;;;13.61;74.50;99529.16;1709894;82;20893;-58
2021/08/08 02:30:12;;;;;;;1.10;0.50;;;;;;;13.58;74.41;99527.54;1709818;82;20998;-56
2021/08/08 02:32:38;;;;;;;1.92;0.42;;;;;;;13.56;74.47;99540.28;1689018;82;21023;-59
2021/08/08 02:35:07;;;;;;;3.87;0.50;;;;;;;13.55;74.48;99537.19;1694534;82;21444;-55
2021/08/08 02:37:35;;;;;;;2.00;0.40;;;;;;;13.55;74.41;99535.84;1712277;82;20933;-58
2021/08/08 02:40:01;;;;;;;1.70;0.50;;;;;;;13.56;74.32;99540.77;1711171;82;20965;-59
2021/08/08 02:42:27;;;;;;;3.45;0.50;;;;;;;13.57;74.30;99541.16;1714552;82;20859;-56
2021/08/08 02:44:54;;;;;;;2.08;0.40;;;;;;;13.56;74.20;99548.88;1711674;82;21731;-58
2021/08/08 02:50:05;;;;;;;1.53;0.50;;;;;;;13.59;74.18;99544.64;1773317;78;22679;-58
2021/08/08 02:52:31;;;;;;;2.55;0.50;;;;;;;13.51;74.06;99542.42;1740130;80;21472;-59
2021/08/08 02:55:00;;;;;;;7.30;0.50;;;;;;;13.48;74.01;99538.55;1701447;81;21130;-57
2021/08/08 02:57:27;;;;;;;0.68;0.40;;;;;;;13.46;74.10;99542.31;1705636;81;20921;-57
2021/08/08 02:59:54;;;;;;;2.92;0.50;;;;;;;13.45;74.29;99547.33;1687988;82;21591;-58
2021/08/08 03:02:20;;;;;;;1.98;0.42;;;;;;;13.45;74.47;99541.92;1702853;82;20915;-59
2021/08/08 03:04:49;;;;;;;2.95;0.50;;;;;;;13.45;74.77;99536.03;1705975;82;20919;-59
2021/08/08 03:07:15;;;;;;;0.82;0.47;;;;;;;13.45;74.97;99531.98;1704455;82;21095;-55
2021/08/08 03:09:43;;;;;;;3.80;0.50;;;;;;;13.49;74.95;99535.37;1698491;82;20978;-56
2021/08/08 03:12:09;;;;;;;1.67;0.93;;;;;;;13.49;74.89;99538.94;1702020;82;20919;-55
2021/08/08 03:14:39;;;;;;;0.78;0.57;;;;;;;13.49;74.97;99540.30;1700882;82;21757;-58
2021/08/08 03:17:05;;;;;;;0.70;0.50;;;;;;;13.49;75.13;99539.42;1704849;82;20962;-58
2021/08/08 03:19:34;;;;;;;0.45;0.40;;;;;;;13.48;75.18;99533.14;1700917;82;20946;-56
2021/08/08 03:22:01;;;;;;;2.05;0.40;;;;;;;13.48;75.20;99536.33;1683554;83;20918;-59
2021/08/08 03:24:28;;;;;;;1.75;0.50;;;;;;;13.49;75.33;99536.23;1670559;83;21144;-57
2021/08/08 03:26:55;;;;;;;1.17;0.50;;;;;;;13.49;75.49;99534.02;1688917;82;21088;-55
2021/08/08 03:29:22;;;;;;;2.98;0.40;;;;;;;13.51;75.78;99534.80;1698886;82;21137;-56
2021/08/08 03:31:49;;;;;;;0.72;0.40;;;;;;;13.54;76.05;99532.75;1695140;82;21103;-56
2021/08/08 03:34:16;;;;;;;0.70;0.33;;;;;;;13.59;76.27;99527.93;1678877;83;21096;-55
2021/08/08 03:36:42;;;;;;;1.00;0.50;;;;;;;13.65;76.38;99537.47;1675335;83;21327;-57
2021/08/08 03:39:09;;;;;;;1.40;0.50;;;;;;;13.71;76.50;99537.55;1680502;83;21073;-55
2021/08/08 03:41:35;;;;;;;4.85;0.72;;;;;;;13.76;76.60;99539.50;1679043;83;21112;-59
2021/08/08 03:44:02;;;;;;;1.50;0.50;;;;;;;13.79;76.73;99541.50;1680435;83;21558;-58
2021/08/08 03:46:28;;;;;;;2.55;0.47;;;;;;;13.81;76.89;99542.28;1673803;83;21604;-59
2021/08/08 03:48:55;;;;;;;1.25;0.37;;;;;;;13.86;77.02;99540.16;1673542;83;21120;-56
2021/08/08 03:51:21;;;;;;;0.88;0.40;;;;;;;13.89;77.25;99541.30;1666064;83;21124;-59
2021/08/08 03:53:48;;;;;;;3.10;0.70;;;;;;;13.95;77.46;99541.41;1672115;83;21121;-58
2021/08/08 03:56:15;;;;;;;2.42;0.57;;;;;;;13.99;77.68;99541.09;1667610;83;21223;-60
2021/08/08 03:58:43;;;;;;;2.10;0.53;;;;;;;14.06;77.89;99542.03;1669907;83;21045;-59
2021/08/08 04:01:09;;;;;;;3.10;0.40;;;;;;;14.12;78.08;99542.48;1665972;83;21117;-55
2021/08/08 04:03:36;;;;;;;2.72;0.40;;;;;;;14.19;78.12;99541.62;1669441;83;21101;-56
2021/08/08 04:06:03;;;;;;;2.42;0.90;;;;;;;14.25;78.24;99543.91;1649785;83;21790;-59
2021/08/08 04:08:30;;;;;;;1.62;0.53;;;;;;;14.31;78.28;99550.26;1666508;83;21208;-60
2021/08/08 04:10:59;;;;;;;0.72;0.50;;;;;;;14.34;78.38;99557.70;1668160;83;21532;-59
2021/08/08 04:13:27;;;;;;;1.10;0.40;;;;;;;14.42;78.60;99552.30;1668043;83;21549;-60
2021/08/08 04:15:54;;;;;;;1.45;0.50;;;;;;;14.58;78.82;99543.52;1668074;83;21110;-59
2021/08/08 04:18:22;;;;;;;1.40;0.40;;;;;;;14.58;78.82;99543.52;1669802;83;21105;-59
2021/08/08 04:20:48;;;;;;;0.65;0.50;;;;;;;14.66;79.25;99549.27;1668607;83;21181;-60
2021/08/08 04:23:16;;;;;;;2.02;0.53;;;;;;;14.77;79.47;99548.06;1669505;83;21104;-60
2021/08/08 04:25:44;;;;;;;1.07;0.40;;;;;;;14.92;79.79;99559.69;1670103;83;21101;-58
2021/08/08 04:28:11;;;;;;;0.53;0.40;;;;;;;15.07;79.94;99559.48;1672810;83;21141;-57
2021/08/08 04:30:38;;;;;;;0.50;0.50;;;;;;;15.20;80.05;99553.22;1654527;83;21169;-59
2021/08/08 04:33:04;;;;;;;0.70;0.50;;;;;;;15.34;80.29;99552.61;1709434;82;21245;-58
2021/08/08 04:35:32;;;;;;;1.32;0.88;;;;;;;15.53;80.46;99558.95;1703218;81;21090;-56
2021/08/08 04:38:00;;;;;;;1.67;0.60;;;;;;;15.69;80.40;99547.90;1699563;81;21109;-61
2021/08/08 04:40:28;;;;;;;0.70;0.60;;;;;;;15.84;80.40;99542.22;1690676;82;21256;-63
2021/08/08 04:42:54;;;;;;;0.53;0.50;;;;;;;16.13;80.49;99536.50;1714348;81;21434;-63
2021/08/08 04:45:21;;;;;;;1.37;0.50;;;;;;;16.28;80.33;99541.66;1711877;82;21939;-62
2021/08/08 04:47:49;;;;;;;1.30;0.60;;;;;;;16.45;80.09;99538.16;1671977;83;21502;-61
2021/08/08 04:50:15;;;;;;;2.20;0.50;;;;;;;16.58;79.86;99538.97;1718584;81;21086;-60
2021/08/08 04:52:42;;;;;;;1.77;0.68;;;;;;;16.70;79.67;99542.61;1708518;81;21105;-60
2021/08/08 04:55:09;;;;;;;0.50;0.40;;;;;;;16.81;79.57;99544.89;1672075;83;21704;-62
2021/08/08 04:57:36;;;;;;;0.75;0.50;;;;;;;16.90;79.48;99550.98;1678831;83;21098;-60
2021/08/08 05:00:06;;;;;;;0.50;0.40;;;;;;;17.01;79.28;99548.27;1690026;83;21595;-59
2021/08/08 05:02:33;;;;;;;0.50;0.50;;;;;;;17.12;79.14;99539.78;1662921;84;21093;-62
2021/08/08 05:05:04;;;;;;;1.40;0.60;;;;;;;17.23;78.85;99539.32;1680618;83;21073;-61
2021/08/08 05:07:31;;;;;;;0.70;0.60;;;;;;;17.35;78.40;99533.41;1674386;83;21068;-61
2021/08/08 05:09:57;;;;;;;0.60;0.60;;;;;;;17.46;77.99;99539.34;1685367;83;22042;-60
2021/08/08 05:12:24;;;;;;;3.20;0.50;;;;;;;17.57;77.64;99540.72;1687496;83;21506;-61
2021/08/08 05:14:52;;;;;;;0.75;0.50;;;;;;;17.68;77.41;99544.84;1677087;83;21101;-60
2021/08/08 05:17:19;;;;;;;0.53;0.40;;;;;;;17.78;77.11;99547.17;1677571;83;21142;-61
2021/08/08 05:19:48;;;;;;;0.40;0.30;;;;;;;17.89;76.90;99549.89;1658323;84;21064;-61
2021/08/08 05:22:17;;;;;;;3.72;0.35;;;;;;;18.01;76.38;99552.98;1658567;83;21504;-61
2021/08/08 05:24:45;;;;;;;0.40;0.35;;;;;;;18.14;75.91;99556.42;1682342;83;21115;-59
2021/08/08 05:27:11;;;;;;;0.57;0.40;;;;;;;18.25;75.19;99549.23;1677429;83;21502;-61
2021/08/08 05:29:39;;;;;;;0.90;0.40;;;;;;;18.37;74.80;99553.67;1650497;83;22252;-62
2021/08/08 05:32:07;;;;;;;1.05;0.40;;;;;;;18.47;74.38;99551.87;1657043;84;21527;-58
2021/08/08 05:34:33;;;;;;;1.32;0.40;;;;;;;18.56;73.58;99551.61;1657027;84;22620;-62
2021/08/08 05:36:59;;;;;;;0.55;0.40;;;;;;;18.64;72.58;99536.86;1656732;84;21539;-61
2021/08/08 05:39:26;;;;;;;0.40;0.30;;;;;;;18.71;72.23;99543.55;1659463;84;20935;-58
2021/08/08 05:41:53;;;;;;;0.40;0.40;;;;;;;18.77;71.90;99547.98;1661195;84;20976;-61
2021/08/08 05:44:21;;;;;;;4.33;0.47;;;;;;;18.85;71.52;99545.46;1645317;85;20981;-61
2021/08/08 05:46:48;;;;;;;1.40;0.40;;;;;;;18.97;71.26;99550.87;1666298;84;21770;-62
2021/08/08 05:49:14;;;;;;;0.40;0.40;;;;;;;19.06;70.96;99552.28;1665256;84;21030;-62
2021/08/08 05:51:41;;;;;;;16.32;5.33;;;;;;;19.14;70.79;99555.20;1704165;82;20938;-59
2021/08/08 05:54:08;;;;;;;0.68;0.50;;;;;;;19.24;70.65;99554.78;1701996;82;20970;-62
2021/08/08 05:56:35;;;;;;;1.90;0.50;;;;;;;19.30;70.41;99556.13;1713230;82;20978;-58
2021/08/08 05:59:01;;;;;;;0.88;0.40;;;;;;;19.32;69.78;99551.37;1711217;82;22115;-60
2021/08/08 06:01:28;;;;;;;1.45;0.37;;;;;;;19.35;69.33;99552.98;1705111;82;20889;-64
2021/08/08 06:03:55;;;;;;;1.05;0.30;;;;;;;19.41;69.01;99554.67;1714394;82;20919;-61
2021/08/08 06:06:21;;;;;;;4.08;0.28;;;;;;;19.46;68.10;99559.25;1709077;82;20967;-61
2021/08/08 06:08:48;;;;;;;0.40;0.33;;;;;;;19.52;67.87;99556.00;1708856;82;20919;-58
2021/08/08 06:11:14;;;;;;;1.05;0.40;;;;;;;19.61;67.45;99555.69;1656239;84;21136;-62
2021/08/08 06:13:41;;;;;;;0.30;0.25;;;;;;;19.67;66.56;99562.45;1705788;82;20951;-60
2021/08/08 06:16:07;;;;;;;1.40;0.30;;;;;;;19.72;65.62;99558.34;1711459;82;20919;-61
2021/08/08 06:18:35;;;;;;;1.57;0.30;;;;;;;19.80;65.74;99561.75;1702124;82;21017;-59
2021/08/08 06:21:02;;;;;;;1.62;0.40;;;;;;;19.84;65.55;99554.99;1706538;82;21051;-60
2021/08/08 06:23:30;;;;;;;1.35;0.30;;;;;;;19.89;64.88;99559.06;1660606;83;21153;-61
2021/08/08 06:25:57;;;;;;;0.90;0.30;;;;;;;19.94;64.43;99564.09;1667550;83;21125;-60
2021/08/08 06:28:23;;;;;;;0.65;0.30;;;;;;;19.99;64.35;99570.00;1703087;82;21034;-61
2021/08/08 06:30:51;;;;;;;0.40;0.30;;;;;;;20.03;64.02;99571.47;1703545;82;21085;-57
2021/08/08 06:33:19;;;;;;;0.30;0.30;;;;;;;20.07;63.92;99556.55;1699960;82;21141;-62
2021/08/08 06:35:48;;;;;;;1.10;0.30;;;;;;;20.14;63.65;99560.95;1709962;82;21497;-62
2021/08/08 06:38:15;;;;;;;1.20;0.30;;;;;;;20.21;63.27;99569.81;1700927;82;21061;-58
2021/08/08 06:40:43;;;;;;;2.17;0.40;;;;;;;20.27;62.06;99571.11;1698408;82;21066;-60
2021/08/08 06:43:10;;;;;;;0.40;0.30;;;;;;;20.31;62.11;99567.97;1694845;82;21116;-61
2021/08/08 06:45:38;;;;;;;3.10;0.30;;;;;;;20.36;62.29;99568.94;1698388;82;20982;-58
2021/08/08 06:48:05;;;;;;;0.35;0.30;;;;;;;20.42;63.01;99574.34;1697762;82;22198;-59
2021/08/08 06:50:33;;;;;;;1.95;0.37;;;;;;;20.50;63.00;99584.93;1699776;82;21081;-56
2021/08/08 06:52:59;;;;;;;0.95;0.30;;;;;;;20.59;62.51;99584.59;1666028;83;21096;-61
2021/08/08 06:55:26;;;;;;;1.98;0.30;;;;;;;20.65;62.19;99582.67;1704005;82;21101;-61
2021/08/08 06:57:52;;;;;;;0.40;0.20;;;;;;;20.70;61.48;99581.23;1674021;83;21073;-59
2021/08/08 07:00:19;;;;;;;0.57;0.30;;;;;;;20.75;60.84;99574.85;1697334;82;21802;-57
2021/08/08 07:02:46;;;;;;;0.93;0.30;;;;;;;20.81;60.38;99580.75;1703956;82;21030;-60
2021/08/08 07:05:12;;;;;;;1.95;0.40;;;;;;;20.85;59.45;99573.97;1700865;82;22504;-60
2021/08/08 07:07:39;;;;;;;1.25;0.30;;;;;;;20.89;59.33;99577.66;1700832;82;21124;-63
2021/08/08 07:10:07;;;;;;;0.80;0.30;;;;;;;20.91;59.19;99579.75;1662492;84;21176;-59
2021/08/08 07:12:34;;;;;;;0.60;0.37;;;;;;;20.98;59.05;99580.90;1689800;82;21098;-62
2021/08/08 07:15:01;;;;;;;2.20;0.40;;;;;;;21.04;58.82;99579.45;1663394;83;21615;-60
2021/08/08 07:17:29;;;;;;;1.95;0.40;;;;;;;21.07;59.05;99584.14;1709509;82;20970;-60
2021/08/08 07:19:55;;;;;;;2.80;0.50;;;;;;;21.12;58.71;99586.42;1701749;82;21484;-63
2021/08/08 07:22:22;;;;;;;2.52;0.40;;;;;;;21.17;58.81;99584.17;1695907;82;21447;-61
2021/08/08 07:24:52;;;;;;;2.02;0.40;;;;;;;21.22;58.41;99585.09;1699231;82;21125;-61
2021/08/08 07:27:20;;;;;;;2.42;0.40;;;;;;;21.27;58.29;99591.84;1698786;82;21070;-61
2021/08/08 07:29:47;;;;;;;0.50;0.40;;;;;;;21.29;56.27;99599.41;1707465;82;20994;-59
2021/08/08 07:32:14;;;;;;;1.00;0.50;;;;;;;21.30;56.60;99596.17;1705604;82;20996;-59
2021/08/08 07:34:42;;;;;;;0.50;0.40;;;;;;;21.33;56.66;99589.92;1695301;82;21006;-60
2021/08/08 07:37:09;;;;;;;0.80;0.70;;;;;;;21.41;56.97;99596.03;1700778;82;21222;-63
2021/08/08 07:39:36;;;;;;;0.60;0.40;;;;;;;21.51;57.46;99600.98;1657970;84;21759;-59
2021/08/08 07:42:04;;;;;;;0.60;0.40;;;;;;;21.58;57.22;99599.89;1699888;82;21117;-58
2021/08/08 07:44:30;;;;;;;0.55;0.40;;;;;;;21.67;57.31;99601.74;1700942;82;21793;-61
2021/08/08 07:46:58;;;;;;;0.65;0.30;;;;;;;21.76;56.52;99600.86;1659785;83;21148;-56
2021/08/08 07:49:24;;;;;;;0.60;0.40;;;;;;;21.82;56.43;99602.99;1659518;84;21527;-62
2021/08/08 07:51:51;;;;;;;0.45;0.40;;;;;;;21.89;56.08;99600.88;1703848;81;22339;-59
2021/08/08 07:54:20;;;;;;;0.62;0.40;;;;;;;21.97;56.37;99604.27;1708136;81;21168;-61
2021/08/08 07:56:48;;;;;;;1.65;0.40;;;;;;;22.04;56.18;99593.56;1671965;83;21095;-60
2021/08/08 07:59:15;;;;;;;0.60;0.40;;;;;;;22.11;55.26;99596.08;1709839;81;21045;-61
2021/08/08 08:01:42;;;;;;;0.65;0.40;;;;;;;22.20;54.92;99600.66;1702258;81;21176;-61
2021/08/08 08:04:09;;;;;;;0.50;0.40;;;;;;;22.25;53.90;99599.68;1703136;81;21100;-60
2021/08/08 08:06:37;;;;;;;0.75;0.40;;;;;;;22.32;53.51;99598.56;1711533;81;21323;-57
2021/08/08 08:09:04;;;;;;;0.42;0.30;;;;;;;22.37;53.49;99597.08;1667592;83;21093;-57
2021/08/08 08:11:33;;;;;;;0.95;0.40;;;;;;;22.46;53.57;99593.92;1674930;83;21046;-57
2021/08/08 08:14:02;;;;;;;0.62;0.40;;;;;;;22.55;52.68;99596.61;1673079;83;21629;-62
2021/08/08 08:16:30;;;;;;;1.10;0.40;;;;;;;22.61;52.44;99600.14;1707669;81;21668;-62
2021/08/08 08:18:56;;;;;;;1.70;0.30;;;;;;;22.68;52.64;99605.86;1706762;81;21581;-61
2021/08/08 08:21:23;;;;;;;0.80;0.40;;;;;;;22.76;52.03;99599.63;1706250;81;20883;-57
2021/08/08 08:23:49;;;;;;;1.85;0.30;;;;;;;22.85;51.97;99611.05;1711672;81;20928;-62
2021/08/08 08:26:16;;;;;;;0.50;0.37;;;;;;;22.93;51.72;99606.51;1710993;81;21125;-63
2021/08/08 08:28:42;;;;;;;10.82;0.70;;;;;;;23.02;52.08;99597.84;1707379;81;20975;-64
2021/08/08 08:31:09;;;;;;;0.53;0.30;;;;;;;23.11;51.31;99599.65;1673416;82;21017;-62
2021/08/08 08:33:37;;;;;;;2.05;0.40;;;;;;;23.19;49.86;99597.48;1693585;81;20939;-57
2021/08/08 08:36:04;;;;;;;0.82;0.37;;;;;;;23.25;49.61;99588.61;1709480;81;21030;-60
2021/08/08 08:38:32;;;;;;;2.55;0.30;;;;;;;23.31;48.47;99587.96;1708337;81;21385;-59
2021/08/08 08:40:59;;;;;;;0.50;0.30;;;;;;;23.38;48.97;99588.57;1706985;81;20950;-60
2021/08/08 08:43:26;;;;;;;0.40;0.30;;;;;;;23.44;48.23;99580.19;1708498;81;21500;-61
2021/08/08 08:45:53;;;;;;;1.92;0.37;;;;;;;23.51;48.61;99581.81;1709233;81;21349;-58
2021/08/08 08:48:20;;;;;;;1.05;0.30;;;;;;;23.57;48.57;99567.42;1708095;81;21029;-54
2021/08/08 08:50:54;;;;;;;0.70;0.33;;;;;;;23.64;47.19;99573.52;1700045;81;21414;-55
2021/08/08 08:53:22;;;;;;;1.05;0.40;;;;;;;23.67;47.24;99574.55;1700779;82;20880;-54
2021/08/08 08:55:54;;;;;;;1.32;0.40;;;;;;;23.67;46.16;99566.81;1697540;82;21098;-56
2021/08/08 08:58:19;;;;;;;0.50;0.20;;;;;;;23.67;45.87;99569.56;1700615;82;21389;-55
2021/08/08 09:00:46;;;;;;;0.40;0.30;;;;;;;23.70;46.73;99567.88;1698687;82;20923;-55
2021/08/08 09:03:13;;;;;;;1.27;0.30;;;;;;;23.75;46.87;99568.23;1661757;83;21761;-57
2021/08/08 09:05:40;;;;;;;0.50;0.40;;;;;;;23.78;47.05;99556.06;1701865;82;21710;-57
2021/08/08 09:08:06;;;;;;;0.70;0.28;;;;;;;23.82;46.98;99569.31;1698943;82;21825;-57
2021/08/08 09:10:33;;;;;;;0.90;0.35;;;;;;;23.88;46.76;99561.80;1701208;82;20931;-58
2021/08/08 09:13:02;;;;;;;1.72;0.30;;;;;;;23.93;44.58;99560.79;1707263;82;21305;-56
2021/08/08 09:15:37;;;;;;;0.40;0.30;;;;;;;23.97;44.79;99563.58;1701571;82;21421;-56
2021/08/08 09:18:21;;;;;;;1.35;0.40;;;;;;;23.98;43.48;99563.06;1701256;82;20962;-55
2021/08/08 09:21:08;;;;;;;0.68;0.30;;;;;;;23.96;44.46;99552.73;1699499;82;21120;-57
2021/08/08 09:23:35;;;;;;;1.30;0.40;;;;;;;23.95;44.22;99560.13;1696973;82;21434;-56
2021/08/08 09:26:03;;;;;;;1.77;0.40;;;;;;;23.95;43.37;99553.25;1698336;82;21080;-56
2021/08/08 09:28:31;;;;;;;0.40;0.33;;;;;;;23.95;42.78;99562.88;1662628;83;21164;-57
2021/08/08 09:31:00;;;;;;;0.85;0.30;;;;;;;23.94;43.16;99559.77;1704557;81;21474;-58
2021/08/08 09:33:27;;;;;;;2.47;2.25;;;;;;;23.94;43.58;99558.39;1662205;83;21998;-57
2021/08/08 09:35:56;;;;;;;3.58;3.27;;;;;;;23.97;43.94;99552.58;1698241;82;21800;-58
2021/08/08 09:38:22;;;;;;;2.20;0.70;;;;;;;23.99;44.24;99551.02;1699045;82;21114;-57
2021/08/08 09:40:59;;;;;;;0.40;0.40;;;;;;;24.00;44.06;99552.23;1701849;82;21142;-58
2021/08/08 09:43:29;;;;;;;0.98;0.50;;;;;;;24.03;44.50;99554.66;1701046;82;21082;-56
2021/08/08 09:45:56;;;;;;;0.90;0.40;;;;;;;24.13;45.37;99546.30;1663180;84;21104;-55
2021/08/08 09:48:38;;;;;;;1.07;0.50;;;;;;;24.18;44.60;99550.77;1695422;82;21105;-56
2021/08/08 09:51:06;;;;;;;0.37;0.35;;;;;;;24.19;43.18;99547.00;1694048;82;21067;-57
2021/08/08 09:53:32;;;;;;;0.50;0.30;;;;;;;24.22;43.38;99545.34;1698486;82;21145;-55
2021/08/08 09:56:07;;;;;;;1.07;0.40;;;;;;;24.24;42.48;99548.78;1702234;82;20964;-55
2021/08/08 09:58:39;;;;;;;1.52;0.40;;;;;;;24.23;42.43;99539.33;1666253;84;21057;-54
2021/08/08 10:01:05;;;;;;;0.65;0.40;;;;;;;24.24;42.60;99541.05;1693435;82;21794;-56
2021/08/08 10:03:34;;;;;;;3.33;0.30;;;;;;;24.26;42.37;99543.09;1700248;82;22338;-54
2021/08/08 10:06:01;;;;;;;1.37;0.30;;;;;;;24.30;42.06;99548.63;1698895;82;22419;-57
2021/08/08 10:08:27;;;;;;;3.90;0.40;;;;;;;24.33;42.03;99540.89;1694682;82;21448;-57
2021/08/08 10:10:57;;;;;;;3.00;0.80;;;;;;;24.34;42.38;99547.25;1696729;82;21496;-56
2021/08/08 10:13:36;;;;;;;10.08;4.67;;;;;;;24.37;41.99;99556.55;1697146;82;21069;-56
2021/08/08 10:16:05;;;;;;;0.75;0.70;;;;;;;24.39;41.40;99551.24;1696685;82;21097;-56
2021/08/08 10:18:40;;;;;;;0.40;0.40;;;;;;;24.42;41.35;99555.02;1700723;82;21127;-56
2021/08/08 10:21:07;;;;;;;5.50;1.95;;;;;;;24.48;40.56;99555.75;1705661;82;20903;-56
2021/08/08 10:23:33;;;;;;;0.55;0.40;;;;;;;24.54;41.21;99551.45;1701070;82;21618;-57
2021/08/08 10:26:00;;;;;;;8.98;8.18;;;;;;;24.60;42.00;99556.78;1664078;84;21009;-55
2021/08/08 10:28:26;;;;;;;2.72;2.17;;;;;;;24.68;42.64;99560.42;1662590;83;21089;-57
2021/08/08 10:30:52;;;;;;;0.40;0.40;;;;;;;24.73;41.56;99566.81;1664159;84;21140;-57
2021/08/08 10:33:19;;;;;;;2.02;0.40;;;;;;;24.76;39.70;99560.95;1662809;84;21053;-55
2021/08/08 10:35:47;;;;;;;0.62;0.40;;;;;;;24.82;40.36;99563.91;1662781;83;21115;-56
2021/08/08 10:38:15;;;;;;;0.93;0.70;;;;;;;24.88;40.90;99566.49;1700310;82;21113;-57
2021/08/08 10:40:42;;;;;;;3.27;1.27;;;;;;;24.92;41.23;99562.42;1697404;82;21598;-56
2021/08/08 10:43:11;;;;;;;1.02;0.50;;;;;;;24.97;40.78;99560.00;1702426;82;21116;-54
2021/08/08 10:45:38;;;;;;;0.55;0.50;;;;;;;25.00;40.21;99560.19;1689707;82;20919;-56
2021/08/08 10:48:08;;;;;;;0.70;0.50;;;;;;;24.97;39.00;99555.88;1707496;82;20931;-56
2021/08/08 10:50:45;;;;;;;0.60;0.50;;;;;;;24.96;40.32;99555.52;1709622;82;21090;-56
2021/08/08 10:53:27;;;;;;;0.68;0.40;;;;;;;24.96;39.01;99550.53;1719130;81;21043;-55
2021/08/08 10:56:07;;;;;;;0.50;0.50;;;;;;;24.96;38.75;99554.66;1711638;81;21822;-56
2021/08/08 10:58:38;;;;;;;1.87;0.42;;;;;;;24.96;38.14;99552.77;1715782;81;21042;-56
2021/08/08 11:01:21;;;;;;;2.12;0.40;;;;;;;24.99;39.10;99558.46;1712961;81;21468;-56
2021/08/08 11:03:57;;;;;;;0.82;0.40;;;;;;;25.01;39.02;99548.97;1717415;81;21112;-56
2021/08/08 11:06:29;;;;;;;0.80;0.50;;;;;;;25.05;39.49;99551.75;1725549;81;21094;-55
2021/08/08 11:08:57;;;;;;;0.30;0.30;;;;;;;25.09;40.19;99549.02;1676597;83;21167;-56
2021/08/08 11:11:25;;;;;;;0.65;0.40;;;;;;;25.16;38.65;99549.18;1677936;83;20870;-55
2021/08/08 11:13:53;;;;;;;1.25;0.40;;;;;;;25.22;39.28;99554.85;1675009;83;21057;-58
2021/08/08 11:16:21;;;;;;;1.07;0.40;;;;;;;25.27;38.60;99555.70;1674466;83;21124;-56
2021/08/08 11:18:55;;;;;;;1.20;0.50;;;;;;;25.31;37.03;99549.34;1673615;83;21108;-56
2021/08/08 11:21:21;;;;;;;0.40;0.30;;;;;;;25.35;37.26;99551.56;1674062;83;21385;-56
2021/08/08 11:23:55;;;;;;;1.07;0.42;;;;;;;25.35;37.01;99540.54;1675827;83;20933;-56
2021/08/08 11:26:22;;;;;;;1.40;0.35;;;;;;;25.36;37.20;99539.52;1668226;83;21058;-57
2021/08/08 11:28:55;;;;;;;1.15;0.60;;;;;;;25.37;37.19;99545.37;1678902;83;20939;-56
2021/08/08 11:31:22;;;;;;;0.40;0.40;;;;;;;25.39;37.26;99539.17;1650393;84;20942;-57
2021/08/08 11:34:02;;;;;;;1.32;0.40;;;;;;;25.43;36.29;99543.84;1657186;84;22457;-54
2021/08/08 11:36:32;;;;;;;0.60;0.50;;;;;;;25.46;36.42;99543.47;1678241;83;21438;-56
2021/08/08 11:38:59;;;;;;;2.92;0.95;;;;;;;25.48;36.75;99553.29;1677695;83;20909;-56
2021/08/08 11:41:25;;;;;;;0.70;0.50;;;;;;;25.51;37.36;99557.09;1680187;83;20908;-55